createdAt,value
2018-07-28T00:01:25.155Z,99794.89
2018-07-28T00:03:53.821Z,99788.87
2018-07-28T00:06:22.438Z,99788.07
2018-07-28T00:09:00.381Z,99790.00
2018-07-28T00:11:29.041Z,99788.25
2018-07-28T00:13:57.701Z,99787.89
2018-07-28T00:16:27.250Z,99785.56
2018-07-28T00:19:05.713Z,99779.36
2018-07-28T00:21:34.332Z,99778.20
2018-07-28T00:24:02.822Z,99778.59
2018-07-28T00:26:31.396Z,99779.95
2018-07-28T00:28:59.951Z,99785.77
2018-07-28T00:31:29.350Z,99785.97
2018-07-28T00:33:58.164Z,99784.39
2018-07-28T00:36:26.856Z,99779.68
2018-07-28T00:39:00.562Z,99776.38
2018-07-28T00:41:30.482Z,99771.72
2018-07-28T00:43:59.239Z,99764.34
2018-07-28T00:46:27.716Z,99761.45
2018-07-28T00:49:01.204Z,99769.00
2018-07-28T00:51:29.758Z,99760.84
2018-07-28T00:53:58.180Z,99757.71
2018-07-28T00:56:26.591Z,99754.44
2018-07-28T01:01:47.715Z,99737.33
2018-07-28T01:04:16.192Z,99721.19
2018-07-28T01:06:45.400Z,99716.33
2018-07-28T01:09:13.952Z,99719.84
2018-07-28T01:11:42.917Z,99718.09
2018-07-28T01:14:12.009Z,99724.49
2018-07-28T01:16:40.789Z,99724.49
2018-07-28T01:19:18.826Z,99719.84
2018-07-28T01:21:49.046Z,99721.37
2018-07-28T01:24:18.456Z,99715.95
2018-07-28T01:26:47.271Z,99716.69
2018-07-28T01:29:17.357Z,99715.72
2018-07-28T01:31:46.997Z,99707.58
2018-07-28T01:34:15.522Z,99705.04
2018-07-28T01:36:43.930Z,99700.77
2018-07-28T01:39:14.590Z,99699.95
2018-07-28T01:41:44.383Z,99706.92
2018-07-28T01:44:12.891Z,99705.18
2018-07-28T01:46:41.661Z,99698.60
2018-07-28T01:49:10.393Z,99696.86
2018-07-28T01:51:38.959Z,99692.73
2018-07-28T01:54:07.542Z,99693.72
2018-07-28T01:56:36.013Z,99694.48
2018-07-28T01:59:09.499Z,99688.46
2018-07-28T02:01:38.115Z,99684.39
2018-07-28T02:04:06.563Z,99685.92
2018-07-28T02:06:36.661Z,99679.33
2018-07-28T02:09:08.473Z,99675.44
2018-07-28T02:11:37.903Z,99673.08
2018-07-28T02:14:06.839Z,99670.73
2018-07-28T02:16:36.848Z,99665.30
2018-07-28T02:19:11.613Z,99666.10
2018-07-28T02:21:40.081Z,99661.83
2018-07-28T02:24:08.639Z,99659.88
2018-07-28T02:26:39.301Z,99654.09
2018-07-28T02:29:09.265Z,99654.45
2018-07-28T02:31:37.753Z,99663.13
2018-07-28T02:34:06.296Z,99671.23
2018-07-28T02:36:34.753Z,99669.29
2018-07-28T02:39:03.363Z,99673.19
2018-07-28T02:41:32.167Z,99675.28
2018-07-28T02:44:01.099Z,99679.88
2018-07-28T02:46:30.057Z,99678.78
2018-07-28T02:48:58.701Z,99679.91
2018-07-28T02:51:28.173Z,99677.19
2018-07-28T02:53:56.871Z,99668.81
2018-07-28T02:56:26.059Z,99664.55
2018-07-28T02:58:55.097Z,99656.80
2018-07-28T03:01:24.745Z,99658.56
2018-07-28T03:03:53.636Z,99658.95
2018-07-28T03:06:22.628Z,99659.15
2018-07-28T03:08:51.842Z,99654.29
2018-07-28T03:11:22.332Z,99651.37
2018-07-28T03:13:51.407Z,99650.78
2018-07-28T03:16:20.535Z,99650.78
2018-07-28T03:18:49.628Z,99645.92
2018-07-28T03:21:18.775Z,99643.00
2018-07-28T03:23:47.873Z,99649.98
2018-07-28T03:26:16.699Z,99644.74
2018-07-28T03:28:45.715Z,99644.36
2018-07-28T03:31:14.629Z,99646.86
2018-07-28T03:33:43.617Z,99649.78
2018-07-28T03:36:12.869Z,99654.41
2018-07-28T03:38:42.335Z,99654.41
2018-07-28T03:41:11.699Z,99649.36
2018-07-28T03:43:40.772Z,99647.06
2018-07-28T03:46:09.905Z,99644.95
2018-07-28T03:48:39.113Z,99639.52
2018-07-28T03:51:08.341Z,99653.31
2018-07-28T03:53:37.643Z,99645.95
2018-07-28T03:56:07.141Z,99643.03
2018-07-28T03:58:36.063Z,99643.03
2018-07-28T04:01:05.124Z,99648.07
2018-07-28T04:03:34.286Z,99646.27
2018-07-28T04:06:03.363Z,99647.62
2018-07-28T04:08:32.453Z,99643.38
2018-07-28T04:11:01.340Z,99638.58
2018-07-28T04:13:30.614Z,99635.45
2018-07-28T04:16:00.075Z,99634.31
2018-07-28T04:18:29.196Z,99638.38
2018-07-28T04:20:58.125Z,99640.67
2018-07-28T04:23:27.018Z,99644.56
2018-07-28T04:25:55.952Z,99642.80
2018-07-28T04:28:26.157Z,99642.41
2018-07-28T04:30:54.975Z,99648.42
2018-07-28T04:33:24.602Z,99649.95
2018-07-28T04:35:53.520Z,99653.81
2018-07-28T04:38:22.385Z,99652.43
2018-07-28T04:40:52.395Z,99646.39
2018-07-28T04:43:20.944Z,99651.80
2018-07-28T04:45:50.246Z,99645.97
2018-07-28T04:48:18.663Z,99654.66
2018-07-28T04:50:47.108Z,99655.00
2018-07-28T04:53:15.596Z,99651.11
2018-07-28T04:55:44.079Z,99649.55
2018-07-28T04:58:12.624Z,99637.95
2018-07-28T05:00:41.440Z,99635.86
2018-07-28T05:03:09.982Z,99635.86
2018-07-28T05:05:38.482Z,99624.22
2018-07-28T05:08:06.881Z,99622.45
2018-07-28T05:10:35.466Z,99621.06
2018-07-28T05:13:04.115Z,99622.59
2018-07-28T05:15:32.666Z,99623.56
2018-07-28T05:18:01.382Z,99623.00
2018-07-28T05:20:29.806Z,99622.41
2018-07-28T05:22:58.287Z,99614.25
2018-07-28T05:25:26.791Z,99614.63
2018-07-28T05:27:55.350Z,99612.86
2018-07-28T05:30:24.224Z,99619.77
2018-07-28T05:32:52.620Z,99620.91
2018-07-28T05:35:21.260Z,99621.50
2018-07-28T05:37:50.112Z,99620.36
2018-07-28T05:40:18.601Z,99620.02
2018-07-28T05:42:47.107Z,99614.22
2018-07-28T05:45:15.854Z,99612.13
2018-07-28T05:47:44.375Z,99615.67
2018-07-28T05:50:13.035Z,99620.57
2018-07-28T05:52:41.495Z,99618.86
2018-07-28T05:55:10.080Z,99614.35
2018-07-28T05:57:38.649Z,99615.92
2018-07-28T06:00:07.815Z,99617.54
2018-07-28T06:02:36.409Z,99616.19
2018-07-28T06:05:05.693Z,99626.88
2018-07-28T06:07:34.275Z,99614.71
2018-07-28T06:10:02.921Z,99612.82
2018-07-28T06:12:31.450Z,99616.73
2018-07-28T06:14:59.930Z,99618.45
2018-07-28T06:17:28.442Z,99617.91
2018-07-28T06:19:56.975Z,99613.46
2018-07-28T06:22:25.792Z,99617.20
2018-07-28T06:24:54.446Z,99616.44
2018-07-28T06:27:23.246Z,99618.78
2018-07-28T06:29:51.732Z,99610.28
2018-07-28T06:32:21.056Z,99610.08
2018-07-28T06:34:49.630Z,99605.06
2018-07-28T06:37:18.105Z,99601.38
2018-07-28T06:39:51.807Z,99603.34
2018-07-28T06:42:20.634Z,99598.91
2018-07-28T06:44:49.198Z,99605.53
2018-07-28T06:47:17.657Z,99603.58
2018-07-28T06:49:46.234Z,99599.33
2018-07-28T06:52:14.784Z,99595.66
2018-07-28T06:54:43.402Z,99597.22
2018-07-28T06:57:11.958Z,99591.60
2018-07-28T06:59:45.560Z,99599.55
2018-07-28T07:02:14.476Z,99604.62
2018-07-28T07:04:42.981Z,99602.88
2018-07-28T07:07:11.460Z,99599.78
2018-07-28T07:09:40.058Z,99599.59
2018-07-28T07:12:08.818Z,99598.25
2018-07-28T07:14:37.432Z,99600.42
2018-07-28T07:17:06.170Z,99601.61
2018-07-28T07:19:35.133Z,99598.72
2018-07-28T07:22:03.788Z,99590.95
2018-07-28T07:24:32.214Z,99591.75
2018-07-28T07:27:00.760Z,99592.14
2018-07-28T07:29:29.246Z,99588.45
2018-07-28T07:31:58.336Z,99590.22
2018-07-28T07:34:26.868Z,99584.97
2018-07-28T07:36:55.398Z,99582.07
2018-07-28T07:39:23.881Z,99581.09
2018-07-28T07:41:52.460Z,99586.33
2018-07-28T07:44:21.280Z,99578.55
2018-07-28T07:46:50.146Z,99580.55
2018-07-28T07:49:18.624Z,99579.77
2018-07-28T07:51:47.170Z,99575.86
2018-07-28T07:54:16.306Z,99570.03
2018-07-28T07:56:44.762Z,99574.87
2018-07-28T07:59:13.388Z,99579.13
2018-07-28T08:01:41.786Z,99576.39
2018-07-28T08:04:10.226Z,99582.40
2018-07-28T08:06:38.784Z,99574.44
2018-07-28T08:09:08.893Z,99575.19
2018-07-28T08:11:37.778Z,99573.44
2018-07-28T08:14:07.830Z,99574.39
2018-07-28T08:16:36.416Z,99572.08
2018-07-28T08:19:05.405Z,99569.55
2018-07-28T08:21:34.570Z,99566.45
2018-07-28T08:24:03.590Z,99569.89
2018-07-28T08:26:32.092Z,99571.43
2018-07-28T08:29:00.846Z,99569.85
2018-07-28T08:31:29.638Z,99564.16
2018-07-28T08:33:58.134Z,99566.52
2018-07-28T08:36:26.928Z,99569.20
2018-07-28T08:38:56.574Z,99570.34
2018-07-28T08:41:26.152Z,99564.70
2018-07-28T08:43:54.722Z,99574.41
2018-07-28T08:46:23.137Z,99574.95
2018-07-28T08:51:44.754Z,99569.30
2018-07-28T08:54:14.445Z,99568.48
2018-07-28T08:56:43.318Z,99570.80
2018-07-28T08:59:12.474Z,99565.14
2018-07-28T09:01:41.473Z,99565.27
2018-07-28T09:04:11.233Z,99567.16
2018-07-28T09:06:40.026Z,99566.72
2018-07-28T09:09:10.662Z,99566.68
2018-07-28T09:11:39.654Z,99565.30
2018-07-28T09:14:09.310Z,99567.95
2018-07-28T09:16:38.050Z,99562.27
2018-07-28T09:19:07.148Z,99568.03
2018-07-28T09:21:36.538Z,99563.50
2018-07-28T09:24:05.683Z,99554.88
2018-07-28T09:26:34.104Z,99546.40
2018-07-28T09:29:02.606Z,99550.44
2018-07-28T09:31:31.182Z,99534.98
2018-07-28T09:33:59.860Z,99532.17
2018-07-28T09:36:28.409Z,99531.12
2018-07-28T09:38:56.818Z,99531.02
2018-07-28T09:41:25.722Z,99526.75
2018-07-28T09:43:54.476Z,99530.47
2018-07-28T09:46:23.026Z,99537.98
2018-07-28T09:48:51.636Z,99535.36
2018-07-28T09:51:20.164Z,99530.91
2018-07-28T09:53:48.963Z,99526.19
2018-07-28T09:56:17.366Z,99525.67
2018-07-28T09:58:45.956Z,99530.91
2018-07-28T10:01:17.550Z,99523.03
2018-07-28T10:03:46.552Z,99527.38
2018-07-28T10:06:15.339Z,99525.22
2018-07-28T10:08:44.863Z,99528.12
2018-07-28T10:11:13.556Z,99533.00
2018-07-28T10:13:42.006Z,99528.42
2018-07-28T10:16:10.587Z,99520.31
2018-07-28T10:18:39.130Z,99509.59
2018-07-28T10:21:07.880Z,99505.13
2018-07-28T10:23:36.406Z,99512.98
2018-07-28T10:26:04.878Z,99511.85
2018-07-28T10:28:33.354Z,99513.00
2018-07-28T10:31:02.038Z,99512.63
2018-07-28T10:33:30.594Z,99509.30
2018-07-28T10:35:59.798Z,99506.06
2018-07-28T10:38:28.304Z,99495.09
2018-07-28T10:40:56.846Z,99498.19
2018-07-28T10:43:26.140Z,99490.84
2018-07-28T10:45:54.724Z,99485.80
2018-07-28T10:48:23.132Z,99480.17
2018-07-28T10:50:51.821Z,99480.63
2018-07-28T10:53:20.378Z,99484.58
2018-07-28T10:55:48.960Z,99482.45
2018-07-28T10:58:17.436Z,99480.80
2018-07-28T11:00:46.538Z,99476.77
2018-07-28T11:03:14.930Z,99475.89
2018-07-28T11:05:43.556Z,99478.99
2018-07-28T11:08:12.328Z,99473.86
2018-07-28T11:10:40.848Z,99469.13
2018-07-28T11:13:09.452Z,99468.65
2018-07-28T11:15:38.545Z,99462.84
2018-07-28T11:18:07.116Z,99458.73
2018-07-28T11:20:35.694Z,99467.53
2018-07-28T11:23:04.534Z,99458.02
2018-07-28T11:25:33.434Z,99441.45
2018-07-28T11:28:02.028Z,99437.67
2018-07-28T11:30:30.440Z,99439.13
2018-07-28T11:33:10.055Z,99431.63
2018-07-28T11:35:49.464Z,99424.77
2018-07-28T11:38:29.094Z,99430.63
2018-07-28T11:41:08.982Z,99434.27
2018-07-28T11:43:48.624Z,99424.09
2018-07-28T11:46:17.282Z,99421.58
2018-07-28T11:48:45.710Z,99418.39
2018-07-28T11:51:14.794Z,99414.72
2018-07-28T11:53:43.650Z,99420.77
2018-07-28T11:56:12.558Z,99425.91
2018-07-28T11:58:41.425Z,99416.58
2018-07-28T12:01:10.332Z,99412.84
2018-07-28T12:03:40.092Z,99413.14
2018-07-28T12:06:08.789Z,99415.00
2018-07-28T12:08:37.750Z,99415.81
2018-07-28T12:11:06.871Z,99415.44
2018-07-28T12:13:35.788Z,99407.55
2018-07-28T12:16:04.848Z,99403.47
2018-07-28T12:18:34.683Z,99411.32
2018-07-28T12:21:03.079Z,99406.37
2018-07-28T12:23:31.495Z,99406.14
2018-07-28T12:26:00.143Z,99400.65
2018-07-28T12:28:28.557Z,99394.42
2018-07-28T12:30:57.118Z,99397.48
2018-07-28T12:33:25.506Z,99389.23
2018-07-28T12:35:53.922Z,99391.83
2018-07-28T12:38:22.361Z,99385.21
2018-07-28T12:40:50.989Z,99384.75
2018-07-28T12:43:19.424Z,99391.95
2018-07-28T12:45:48.161Z,99401.48
2018-07-28T12:48:16.590Z,99397.50
2018-07-28T12:50:45.026Z,99393.20
2018-07-28T12:53:13.475Z,99391.82
2018-07-28T12:55:41.960Z,99389.19
2018-07-28T12:58:10.543Z,99384.00
2018-07-28T13:00:38.926Z,99381.06
2018-07-28T13:03:07.408Z,99377.33
2018-07-28T13:05:35.809Z,99375.31
2018-07-28T13:08:04.335Z,99365.05
2018-07-28T13:10:32.800Z,99365.52
2018-07-28T13:13:01.224Z,99358.14
2018-07-28T13:15:29.645Z,99356.60
2018-07-28T13:17:58.227Z,99352.58
2018-07-28T13:20:26.596Z,99349.12
2018-07-28T13:22:55.073Z,99350.33
2018-07-28T13:25:23.531Z,99341.34
2018-07-28T13:27:51.933Z,99354.09
2018-07-28T13:30:20.501Z,99352.11
2018-07-28T13:32:48.923Z,99350.85
2018-07-28T13:35:17.563Z,99353.02
2018-07-28T13:37:46.025Z,99343.50
2018-07-28T13:40:14.483Z,99337.33
2018-07-28T13:42:42.905Z,99344.20
2018-07-28T13:45:11.301Z,99350.78
2018-07-28T13:47:39.751Z,99351.39
2018-07-28T13:50:08.188Z,99346.97
2018-07-28T13:52:36.563Z,99357.67
2018-07-28T13:55:05.617Z,99360.36
2018-07-28T13:57:34.076Z,99361.03
2018-07-28T14:00:02.486Z,99355.34
2018-07-28T14:02:30.879Z,99358.88
2018-07-28T14:05:00.177Z,99357.77
2018-07-28T14:07:28.674Z,99362.30
2018-07-28T14:09:57.386Z,99360.68
2018-07-28T14:12:25.065Z,99365.34
2018-07-28T14:14:56.701Z,99385.21
2018-07-28T14:17:24.365Z,99401.93
2018-07-28T14:19:52.196Z,99393.75
2018-07-28T14:22:20.923Z,99407.11
2018-07-28T14:24:49.387Z,99413.72
2018-07-28T14:27:18.005Z,99430.36
2018-07-28T14:29:46.609Z,99453.84
2018-07-28T14:32:15.166Z,99479.45
2018-07-28T14:34:44.030Z,99506.41
2018-07-28T14:37:12.639Z,99516.30
2018-07-28T14:39:41.181Z,99523.14
2018-07-28T14:42:10.171Z,99540.03
2018-07-28T14:44:38.825Z,99535.87
2018-07-28T14:47:08.253Z,99534.38
2018-07-28T14:49:37.228Z,99528.27
2018-07-28T14:52:05.860Z,99531.55
2018-07-28T14:54:34.740Z,99524.50
2018-07-28T14:57:03.199Z,99515.47
2018-07-28T14:59:31.754Z,99512.27
2018-07-28T15:02:00.466Z,99496.84
2018-07-28T15:04:29.369Z,99489.95
2018-07-28T15:06:57.888Z,99475.95
2018-07-28T15:09:26.486Z,99459.27
2018-07-28T15:11:55.219Z,99453.13
2018-07-28T15:14:23.664Z,99438.29
2018-07-28T15:16:52.345Z,99430.69
2018-07-28T15:19:26.115Z,99421.95
2018-07-28T15:21:54.992Z,99421.78
2018-07-28T15:24:23.461Z,99435.47
2018-07-28T15:26:52.756Z,99452.14
2018-07-28T15:29:21.351Z,99450.97
2018-07-28T15:31:49.913Z,99460.33
2018-07-28T15:34:18.511Z,99465.33
2018-07-28T15:36:46.955Z,99468.63
2018-07-28T15:39:15.589Z,99468.47
2018-07-28T15:41:44.090Z,99460.17
2018-07-28T15:44:12.627Z,99457.73
2018-07-28T15:46:41.493Z,99464.86
2018-07-28T15:49:12.802Z,99465.99
2018-07-28T15:51:41.355Z,99474.72
2018-07-28T15:54:09.943Z,99471.41
2018-07-28T15:56:38.555Z,99474.72
2018-07-28T15:59:07.311Z,99467.89
2018-07-28T16:01:36.148Z,99468.72
2018-07-28T16:04:04.733Z,99476.02
2018-07-28T16:06:33.193Z,99482.30
2018-07-28T16:09:01.813Z,99486.26
2018-07-28T16:11:30.332Z,99493.31
2018-07-28T16:13:58.805Z,99497.44
2018-07-28T16:16:27.533Z,99506.81
2018-07-28T16:18:56.294Z,99508.97
2018-07-28T16:21:25.061Z,99519.88
2018-07-28T16:23:53.670Z,99514.09
2018-07-28T16:26:22.309Z,99526.44
2018-07-28T16:28:51.464Z,99527.23
2018-07-28T16:31:20.312Z,99537.99
2018-07-28T16:33:49.084Z,99573.28
2018-07-28T16:36:17.893Z,99603.17
2018-07-28T16:38:51.423Z,99602.06
2018-07-28T16:41:20.161Z,99600.75
2018-07-28T16:43:49.568Z,99615.50
2018-07-28T16:46:19.035Z,99607.88
2018-07-28T16:48:53.665Z,99618.64
2018-07-28T16:51:22.558Z,99628.41
2018-07-28T16:53:52.167Z,99620.55
2018-07-28T16:56:22.392Z,99629.30
2018-07-28T16:58:51.134Z,99626.96
2018-07-28T17:01:19.620Z,99634.16
2018-07-28T17:03:48.212Z,99635.89
2018-07-28T17:06:17.023Z,99633.35
2018-07-28T17:08:45.657Z,99641.45
2018-07-28T17:11:14.909Z,99649.58
2018-07-28T17:13:43.796Z,99644.67
2018-07-28T17:16:12.582Z,99636.50
2018-07-28T17:18:41.083Z,99628.92
2018-07-28T17:21:09.738Z,99622.73
2018-07-28T17:23:38.275Z,99608.92
2018-07-28T17:26:08.050Z,99599.72
2018-07-28T17:28:36.657Z,99593.62
2018-07-28T17:31:05.268Z,99589.86
2018-07-28T17:33:33.736Z,99589.63
2018-07-28T17:36:02.619Z,99583.77
2018-07-28T17:38:32.481Z,99578.30
2018-07-28T17:41:01.979Z,99583.54
2018-07-28T17:43:30.596Z,99575.77
2018-07-28T17:45:59.376Z,99568.74
2018-07-28T17:48:28.316Z,99566.56
2018-07-28T17:50:57.059Z,99567.92
2018-07-28T17:53:26.088Z,99574.77
2018-07-28T17:55:55.155Z,99579.06
2018-07-28T17:58:24.889Z,99591.91
2018-07-28T18:00:53.727Z,99598.14
2018-07-28T18:03:22.507Z,99618.03
2018-07-28T18:05:51.255Z,99636.94
2018-07-28T18:08:20.137Z,99652.88
2018-07-28T18:10:49.107Z,99668.69
2018-07-28T18:13:18.110Z,99664.83
2018-07-28T18:15:47.521Z,99676.80
2018-07-28T18:18:16.260Z,99671.94
2018-07-28T18:20:45.488Z,99678.20
2018-07-28T18:23:14.166Z,99692.97
2018-07-28T18:25:42.690Z,99685.80
2018-07-28T18:28:11.253Z,99684.81
2018-07-28T18:30:39.876Z,99689.09
2018-07-28T18:33:09.605Z,99685.81
2018-07-28T18:35:38.247Z,99688.94
2018-07-28T18:38:07.076Z,99695.33
2018-07-28T18:40:45.007Z,99707.39
2018-07-28T18:43:13.567Z,99700.62
2018-07-28T18:45:42.405Z,99699.83
2018-07-28T18:48:11.159Z,99709.39
2018-07-28T18:50:39.766Z,99716.00
2018-07-28T18:53:08.759Z,99728.30
2018-07-28T18:55:37.755Z,99723.84
2018-07-28T18:58:07.000Z,99715.30
2018-07-28T19:00:40.863Z,99714.92
2018-07-28T19:03:09.425Z,99713.17
2018-07-28T19:05:39.120Z,99707.90
2018-07-28T19:08:07.708Z,99715.09
2018-07-28T19:10:41.522Z,99719.95
2018-07-28T19:13:15.323Z,99728.33
2018-07-28T19:15:44.016Z,99718.42
2018-07-28T19:18:17.961Z,99730.06
2018-07-28T19:20:46.598Z,99749.50
2018-07-28T19:23:20.381Z,99767.57
2018-07-28T19:25:49.019Z,99785.81
2018-07-28T19:28:23.033Z,99796.11
2018-07-28T19:30:56.625Z,99797.28
2018-07-28T19:33:25.255Z,99803.47
2018-07-28T19:35:58.932Z,99814.90
2018-07-28T19:38:27.810Z,99809.48
2018-07-28T19:40:56.293Z,99811.23
2018-07-28T19:43:25.059Z,99807.92
2018-07-28T19:45:53.560Z,99808.53
2018-07-28T19:48:22.533Z,99811.05
2018-07-28T19:51:00.427Z,99808.88
2018-07-28T19:53:29.442Z,99807.92
2018-07-28T19:55:58.401Z,99812.00
2018-07-28T19:58:27.071Z,99817.27
2018-07-28T20:00:55.750Z,99827.19
2018-07-28T20:03:24.460Z,99840.44
2018-07-28T20:05:53.103Z,99852.88
2018-07-28T20:08:21.783Z,99863.35
2018-07-28T20:10:50.389Z,99869.92
2018-07-28T20:13:20.155Z,99874.54
2018-07-28T20:15:48.743Z,99872.17
2018-07-28T20:18:16.403Z,99864.81
2018-07-28T20:20:45.811Z,99858.14
2018-07-28T20:23:14.561Z,99851.52
2018-07-28T20:25:45.507Z,99851.69
2018-07-28T20:28:14.011Z,99847.21
2018-07-28T20:30:43.662Z,99852.84
2018-07-28T20:33:12.657Z,99854.97
2018-07-28T20:35:41.297Z,99861.78
2018-07-28T20:38:10.227Z,99865.45
2018-07-28T20:40:39.035Z,99865.42
2018-07-28T20:43:07.597Z,99871.02
2018-07-28T20:45:36.169Z,99879.88
2018-07-28T20:48:04.949Z,99886.30
2018-07-28T20:50:43.037Z,99885.86
2018-07-28T20:53:11.715Z,99893.56
2018-07-28T20:55:40.337Z,99887.95
2018-07-28T20:58:08.849Z,99892.97
2018-07-28T21:00:37.719Z,99895.27
2018-07-28T21:03:06.914Z,99898.66
2018-07-28T21:05:35.542Z,99894.48
2018-07-28T21:08:04.284Z,99898.14
2018-07-28T21:10:32.981Z,99895.46
2018-07-28T21:13:01.625Z,99898.28
2018-07-28T21:15:30.451Z,99899.94
2018-07-28T21:17:59.423Z,99903.30
2018-07-28T21:20:28.094Z,99900.28
2018-07-28T21:22:56.706Z,99899.70
2018-07-28T21:25:25.461Z,99891.12
2018-07-28T21:27:53.932Z,99886.93
2018-07-28T21:30:22.730Z,99878.42
2018-07-28T21:32:51.691Z,99886.60
2018-07-28T21:35:20.477Z,99886.64
2018-07-28T21:37:50.657Z,99878.16
2018-07-28T21:40:19.555Z,99877.61
2018-07-28T21:42:49.804Z,99879.17
2018-07-28T21:45:19.125Z,99869.13
2018-07-28T21:47:48.469Z,99866.41
2018-07-28T21:50:17.458Z,99866.82
2018-07-28T21:52:45.898Z,99870.09
2018-07-28T21:55:14.607Z,99889.81
2018-07-28T21:57:43.006Z,99918.52
2018-07-28T22:00:12.005Z,99935.72
2018-07-28T22:02:40.486Z,99945.18
2018-07-28T22:05:09.554Z,99950.36
2018-07-28T22:07:38.065Z,99937.50
2018-07-28T22:10:06.751Z,99923.25
2018-07-28T22:12:35.288Z,99895.84
2018-07-28T22:15:03.986Z,99874.01
2018-07-28T22:17:32.479Z,99874.46
2018-07-28T22:20:01.081Z,99885.73
2018-07-28T22:22:29.639Z,99890.61
2018-07-28T22:24:58.804Z,99904.70
2018-07-28T22:27:27.327Z,99914.19
2018-07-28T22:30:01.292Z,99922.72
2018-07-28T22:32:29.842Z,99935.01
2018-07-28T22:34:58.492Z,99942.77
2018-07-28T22:37:27.036Z,99946.08
2018-07-28T22:39:56.344Z,99950.78
2018-07-28T22:42:35.892Z,99980.84
2018-07-28T22:45:05.746Z,100021.19
2018-07-28T22:47:34.486Z,100034.54
2018-07-28T22:50:03.650Z,100043.05
2018-07-28T22:52:35.331Z,100038.27
2018-07-28T22:55:05.550Z,100052.15
2018-07-28T22:57:34.706Z,100066.08
2018-07-28T23:00:03.557Z,100050.45
2018-07-28T23:02:32.012Z,100050.55
2018-07-28T23:05:01.000Z,100049.52
2018-07-28T23:07:29.556Z,100063.59
2018-07-28T23:09:58.276Z,100072.41
2018-07-28T23:12:28.234Z,100080.26
2018-07-28T23:14:56.954Z,100092.61
2018-07-28T23:17:28.066Z,100090.48
2018-07-28T23:19:57.525Z,100086.33
2018-07-28T23:22:28.341Z,100082.10
2018-07-28T23:24:57.768Z,100089.09
2018-07-28T23:27:26.816Z,100097.98
2018-07-28T23:29:57.184Z,100095.65
2018-07-28T23:32:26.996Z,100098.66
2018-07-28T23:34:57.456Z,100095.27
2018-07-28T23:37:36.487Z,100097.98
2018-07-28T23:40:23.964Z,100095.48
2018-07-28T23:42:53.089Z,100098.81
2018-07-28T23:45:22.188Z,100101.73
2018-07-28T23:47:52.692Z,100103.70
2018-07-28T23:50:21.661Z,100095.35
2018-07-28T23:52:51.394Z,100104.90
2018-07-28T23:55:21.017Z,100114.94
2018-07-28T23:57:51.641Z,100131.14
